createdAt,value
2022-10-01T00:01:17.102Z,10.43
2022-10-01T00:03:44.480Z,10.67
2022-10-01T00:06:17.730Z,12.13
2022-10-01T00:08:49.261Z,8.88
2022-10-01T00:11:21.991Z,11.05
2022-10-01T00:13:48.790Z,10.15
2022-10-01T00:16:26.979Z,10.15
2022-10-01T00:18:54.486Z,10.55
2022-10-01T00:21:30.028Z,10.80
2022-10-01T00:24:03.088Z,10.80
2022-10-01T00:26:32.328Z,11.18
2022-10-01T00:29:02.093Z,11.07
2022-10-01T00:31:29.831Z,11.77
2022-10-01T00:33:58.432Z,12.25
2022-10-01T00:36:26.195Z,14.00
2022-10-01T00:38:53.341Z,13.40
2022-10-01T00:41:20.118Z,14.43
2022-10-01T00:44:25.604Z,12.23
2022-10-01T00:46:54.942Z,12.87
2022-10-01T00:49:27.544Z,11.50
2022-10-01T00:51:58.034Z,13.73
2022-10-01T00:54:33.453Z,12.30
2022-10-01T00:57:01.508Z,12.63
2022-10-01T00:59:29.324Z,12.60
2022-10-01T01:01:56.147Z,12.02
2022-10-01T01:04:22.955Z,11.27
2022-10-01T01:06:57.669Z,11.02
2022-10-01T01:09:37.314Z,9.80
2022-10-01T01:12:30.251Z,10.95
2022-10-01T01:15:11.736Z,10.13
2022-10-01T01:18:22.935Z,9.90
2022-10-01T01:21:09.467Z,10.10
2022-10-01T01:24:03.309Z,9.73
2022-10-01T01:26:51.570Z,10.20
2022-10-01T01:29:35.006Z,10.07
2022-10-01T01:32:14.774Z,8.73
2022-10-01T01:34:45.492Z,10.20
2022-10-01T01:37:15.386Z,8.70
2022-10-01T01:39:46.190Z,7.53
2022-10-01T01:42:22.265Z,9.07
2022-10-01T01:44:53.204Z,8.25
2022-10-01T01:47:23.520Z,10.15
2022-10-01T01:49:52.461Z,8.93
2022-10-01T01:52:19.261Z,9.00
2022-10-01T01:54:49.741Z,8.60
2022-10-01T01:57:18.167Z,8.75
2022-10-01T01:59:45.487Z,8.88
2022-10-01T02:02:35.859Z,8.05
2022-10-01T02:05:09.602Z,9.02
2022-10-01T02:08:00.424Z,8.80
2022-10-01T02:10:45.639Z,10.40
2022-10-01T02:13:35.093Z,9.35
2022-10-01T02:16:14.981Z,11.20
2022-10-01T02:19:03.267Z,12.75
2022-10-01T02:21:50.547Z,11.50
2022-10-01T02:24:17.520Z,9.52
2022-10-01T02:26:47.633Z,9.40
2022-10-01T02:29:18.535Z,11.20
2022-10-01T02:31:47.344Z,10.75
2022-10-01T02:34:20.080Z,11.65
2022-10-01T02:36:48.818Z,11.95
2022-10-01T02:39:18.241Z,11.55
2022-10-01T02:41:48.029Z,11.18
2022-10-01T02:44:22.830Z,10.10
2022-10-01T02:47:04.443Z,11.40
2022-10-01T02:49:32.009Z,10.95
2022-10-01T02:52:08.916Z,10.25
2022-10-01T02:54:58.239Z,10.43
2022-10-01T02:57:29.586Z,9.70
2022-10-01T03:00:03.204Z,11.35
2022-10-01T03:02:31.543Z,10.73
2022-10-01T03:04:59.189Z,12.18
2022-10-01T03:07:27.623Z,10.52
2022-10-01T03:09:54.572Z,12.23
2022-10-01T03:12:21.829Z,12.02
2022-10-01T03:14:48.591Z,9.75
2022-10-01T03:17:16.321Z,11.65
2022-10-01T03:19:43.259Z,11.32
2022-10-01T03:22:12.817Z,10.70
2022-10-01T03:24:39.606Z,9.88
2022-10-01T03:27:06.663Z,11.32
2022-10-01T03:29:33.405Z,11.57
2022-10-01T03:32:00.262Z,10.88
2022-10-01T03:34:27.113Z,10.18
2022-10-01T03:36:53.932Z,11.00
2022-10-01T03:39:20.887Z,10.63
2022-10-01T03:41:47.706Z,9.90
2022-10-01T03:44:14.535Z,10.88
2022-10-01T03:46:41.575Z,10.70
2022-10-01T03:49:08.290Z,9.00
2022-10-01T03:51:37.362Z,9.95
2022-10-01T03:54:05.825Z,9.18
2022-10-01T03:56:33.317Z,9.40
2022-10-01T03:59:00.178Z,10.10
2022-10-01T04:01:27.270Z,9.45
2022-10-01T04:03:54.308Z,9.98
2022-10-01T04:06:21.079Z,10.43
2022-10-01T04:08:48.039Z,11.00
2022-10-01T04:11:15.025Z,10.40
2022-10-01T04:13:41.764Z,10.82
2022-10-01T04:16:08.954Z,8.63
2022-10-01T04:18:36.118Z,9.70
2022-10-01T04:21:03.073Z,9.45
2022-10-01T04:23:29.804Z,9.35
2022-10-01T04:26:05.471Z,8.27
2022-10-01T04:28:32.316Z,8.43
2022-10-01T04:31:17.944Z,10.55
2022-10-01T04:33:45.350Z,14.50
2022-10-01T04:36:12.064Z,13.13
2022-10-01T04:38:38.822Z,13.73
2022-10-01T04:41:05.852Z,11.35
2022-10-01T04:43:32.736Z,10.05
2022-10-01T04:45:59.540Z,10.60
2022-10-01T04:48:26.400Z,13.60
2022-10-01T04:50:53.168Z,11.07
2022-10-01T04:53:19.879Z,10.75
2022-10-01T04:55:46.694Z,11.98
2022-10-01T04:58:13.635Z,13.43
2022-10-01T05:00:40.841Z,15.85
2022-10-01T05:03:07.572Z,13.52
2022-10-01T05:05:35.046Z,12.68
2022-10-01T05:08:02.181Z,10.93
2022-10-01T05:10:29.188Z,11.10
2022-10-01T05:12:56.752Z,10.45
2022-10-01T05:15:23.500Z,10.27
2022-10-01T05:17:50.264Z,9.80
2022-10-01T05:20:19.913Z,9.27
2022-10-01T05:22:47.390Z,9.10
2022-10-01T05:25:14.615Z,11.07
2022-10-01T05:27:41.676Z,8.70
2022-10-01T05:30:10.561Z,9.20
2022-10-01T05:32:37.916Z,10.38
2022-10-01T05:35:07.061Z,9.57
2022-10-01T05:37:34.534Z,9.77
2022-10-01T05:40:01.714Z,10.07
2022-10-01T05:42:28.484Z,9.15
2022-10-01T05:44:56.111Z,9.68
2022-10-01T05:47:23.207Z,11.07
2022-10-01T05:49:49.921Z,20.00
2022-10-01T05:52:16.765Z,39.13
2022-10-01T05:54:43.581Z,42.45
2022-10-01T05:57:10.681Z,41.22
2022-10-01T05:59:37.438Z,38.92
2022-10-01T06:02:04.617Z,33.60
2022-10-01T06:04:31.458Z,31.15
2022-10-01T06:06:58.261Z,27.73
2022-10-01T06:09:25.228Z,23.88
2022-10-01T06:11:51.964Z,22.33
2022-10-01T06:14:18.943Z,21.63
2022-10-01T06:16:46.923Z,23.10
2022-10-01T06:19:13.956Z,19.55
2022-10-01T06:21:40.673Z,22.77
2022-10-01T06:24:07.483Z,22.05
2022-10-01T06:26:34.209Z,23.50
2022-10-01T06:29:02.642Z,20.85
2022-10-01T06:31:30.072Z,16.40
2022-10-01T06:33:56.843Z,14.70
2022-10-01T06:36:23.544Z,12.57
2022-10-01T06:38:50.343Z,12.93
2022-10-01T06:41:17.056Z,12.30
2022-10-01T06:43:44.090Z,12.35
2022-10-01T06:46:11.263Z,10.82
2022-10-01T06:48:38.068Z,12.05
2022-10-01T06:51:05.779Z,11.70
2022-10-01T06:53:32.632Z,10.60
2022-10-01T06:56:04.843Z,10.93
2022-10-01T06:58:31.713Z,10.60
2022-10-01T07:01:01.456Z,10.50
2022-10-01T07:03:28.453Z,9.80
2022-10-01T07:06:02.231Z,10.70
2022-10-01T07:08:29.043Z,10.43
2022-10-01T07:11:03.343Z,10.83
2022-10-01T07:13:30.191Z,11.07
2022-10-01T07:15:57.176Z,10.97
2022-10-01T07:18:23.965Z,12.30
2022-10-01T07:20:50.723Z,10.70
2022-10-01T07:23:17.958Z,11.17
2022-10-01T07:25:45.631Z,11.13
2022-10-01T07:28:17.823Z,12.10
2022-10-01T07:31:14.977Z,10.23
2022-10-01T07:33:42.028Z,11.00
2022-10-01T07:36:11.292Z,10.30
2022-10-01T07:38:38.012Z,9.17
2022-10-01T07:41:04.999Z,9.57
2022-10-01T07:43:34.161Z,8.83
2022-10-01T07:46:02.008Z,9.10
2022-10-01T07:48:28.800Z,9.47
2022-10-01T07:50:56.476Z,8.27
2022-10-01T07:53:24.052Z,8.03
2022-10-01T07:55:50.802Z,7.83
2022-10-01T07:58:18.701Z,7.50
2022-10-01T08:00:45.532Z,7.10
2022-10-01T08:03:12.410Z,8.30
2022-10-01T08:05:41.430Z,7.80
2022-10-01T08:08:08.752Z,9.30
2022-10-01T08:10:37.917Z,8.00
2022-10-01T08:13:14.481Z,7.43
2022-10-01T08:15:42.793Z,7.20
2022-10-01T08:18:10.955Z,7.40
2022-10-01T08:20:41.799Z,7.80
2022-10-01T08:23:11.300Z,7.33
2022-10-01T08:25:38.534Z,6.90
2022-10-01T08:28:06.528Z,6.60
2022-10-01T08:30:33.643Z,5.77
2022-10-01T08:33:01.903Z,6.50
2022-10-01T08:35:30.181Z,6.53
2022-10-01T08:38:06.735Z,6.67
2022-10-01T08:40:36.839Z,6.87
2022-10-01T08:43:16.494Z,6.30
2022-10-01T08:45:49.240Z,5.53
2022-10-01T08:48:56.851Z,5.90
2022-10-01T08:51:32.790Z,6.00
2022-10-01T08:54:11.841Z,4.83
2022-10-01T08:56:45.279Z,5.17
2022-10-01T08:59:40.975Z,4.93
2022-10-01T09:02:21.674Z,4.90
2022-10-01T09:04:51.485Z,4.57
2022-10-01T09:07:49.613Z,4.30
2022-10-01T09:10:31.729Z,3.90
2022-10-01T09:13:27.785Z,4.60
2022-10-01T09:16:24.299Z,4.80
2022-10-01T09:18:58.821Z,4.90
2022-10-01T09:21:36.778Z,4.20
2022-10-01T09:24:15.603Z,4.10
2022-10-01T09:26:46.630Z,5.40
2022-10-01T09:29:35.661Z,5.17
2022-10-01T09:32:05.947Z,4.67
2022-10-01T09:34:40.194Z,3.90
2022-10-01T09:37:18.815Z,3.90
2022-10-01T09:40:04.983Z,3.23
2022-10-01T09:42:32.127Z,3.93
2022-10-01T09:44:59.599Z,3.40
2022-10-01T09:47:26.531Z,4.03
2022-10-01T09:49:53.271Z,4.90
2022-10-01T09:52:34.541Z,4.10
2022-10-01T09:55:27.203Z,3.37
2022-10-01T09:57:58.023Z,3.10
2022-10-01T10:00:27.005Z,3.27
2022-10-01T10:02:55.513Z,3.30
2022-10-01T10:05:30.341Z,3.27
2022-10-01T10:08:05.934Z,3.20
2022-10-01T10:10:35.785Z,3.40
2022-10-01T10:13:11.340Z,2.70
2022-10-01T10:15:49.513Z,3.13
2022-10-01T10:18:22.969Z,5.77
2022-10-01T10:20:53.930Z,3.47
2022-10-01T10:23:23.197Z,3.53
2022-10-01T10:26:00.817Z,2.60
2022-10-01T10:28:29.668Z,2.60
2022-10-01T10:30:57.932Z,2.70
2022-10-01T10:33:26.373Z,2.60
2022-10-01T10:36:06.733Z,2.90
2022-10-01T10:38:34.916Z,2.77
2022-10-01T10:41:03.846Z,2.70
2022-10-01T10:43:37.963Z,3.00
2022-10-01T10:46:07.118Z,3.50
2022-10-01T10:48:43.895Z,2.70
2022-10-01T10:51:10.684Z,2.83
2022-10-01T10:53:45.366Z,2.30
2022-10-01T10:56:22.625Z,3.13
2022-10-01T10:58:51.374Z,2.73
2022-10-01T11:01:26.962Z,2.37
2022-10-01T11:03:57.417Z,2.23
2022-10-01T11:06:24.413Z,2.50
2022-10-01T11:09:00.493Z,2.50
2022-10-01T11:11:51.175Z,2.90
2022-10-01T11:14:42.071Z,2.90
2022-10-01T11:17:56.864Z,15.87
2022-10-01T11:20:32.290Z,6.50
2022-10-01T11:22:58.968Z,4.00
2022-10-01T11:25:31.391Z,2.50
2022-10-01T11:28:26.968Z,3.83
2022-10-01T11:31:12.071Z,3.87
2022-10-01T11:34:14.379Z,4.80
2022-10-01T11:37:10.676Z,4.53
2022-10-01T11:39:42.411Z,3.90
2022-10-01T11:42:22.118Z,2.53
2022-10-01T11:45:04.209Z,2.13
2022-10-01T11:47:41.678Z,2.30
2022-10-01T11:50:25.377Z,2.30
2022-10-01T11:53:04.745Z,2.37
2022-10-01T11:55:59.791Z,2.47
2022-10-01T11:58:50.820Z,2.40
2022-10-01T12:01:46.273Z,2.73
2022-10-01T12:04:32.442Z,2.50
2022-10-01T12:07:26.746Z,2.40
2022-10-01T12:09:53.577Z,1.67
2022-10-01T12:12:28.880Z,3.00
2022-10-01T12:15:28.626Z,2.17
2022-10-01T12:18:15.716Z,2.97
2022-10-01T12:20:47.588Z,2.97
2022-10-01T12:23:18.776Z,2.67
2022-10-01T12:25:49.028Z,5.07
2022-10-01T12:28:27.619Z,3.30
2022-10-01T12:31:05.158Z,2.27
2022-10-01T12:33:43.772Z,3.83
2022-10-01T12:36:26.318Z,5.17
2022-10-01T12:39:13.307Z,3.40
2022-10-01T12:41:41.068Z,3.63
2022-10-01T12:44:13.839Z,5.83
2022-10-01T12:46:47.398Z,3.33
2022-10-01T12:49:42.090Z,3.70
2022-10-01T12:52:34.694Z,5.17
2022-10-01T12:55:34.276Z,8.37
2022-10-01T12:58:17.917Z,6.10
2022-10-01T13:00:55.827Z,5.70
2022-10-01T13:03:25.514Z,5.90
2022-10-01T13:06:14.748Z,7.70
2022-10-01T13:09:08.499Z,8.00
2022-10-01T13:11:54.370Z,3.70
2022-10-01T13:14:22.560Z,5.50
2022-10-01T13:16:58.845Z,4.93
2022-10-01T13:19:48.100Z,5.67
2022-10-01T13:22:47.636Z,5.00
2022-10-01T13:25:33.119Z,6.10
2022-10-01T13:28:36.244Z,7.90
2022-10-01T13:31:13.058Z,4.67
2022-10-01T13:33:39.852Z,8.60
2022-10-01T13:36:08.254Z,4.67
2022-10-01T13:38:37.764Z,1.23
2022-10-01T13:41:23.935Z,1.50
2022-10-01T13:44:14.989Z,1.40
2022-10-01T13:46:59.153Z,1.00
2022-10-01T13:49:30.780Z,1.17
2022-10-01T13:51:58.303Z,1.10
2022-10-01T13:54:39.878Z,1.20
2022-10-01T13:57:11.536Z,2.00
2022-10-01T13:59:38.804Z,1.10
2022-10-01T14:03:00.401Z,1.60
2022-10-01T14:05:36.599Z,1.17
2022-10-01T14:08:26.053Z,1.00
2022-10-01T14:11:34.292Z,1.10
2022-10-01T14:14:30.611Z,1.20
2022-10-01T14:16:58.855Z,1.00
2022-10-01T14:19:27.664Z,1.10
2022-10-01T14:22:03.636Z,1.20
2022-10-01T14:24:57.537Z,1.00
2022-10-01T14:27:29.996Z,1.00
2022-10-01T14:30:13.532Z,1.10
2022-10-01T14:32:51.000Z,1.00
2022-10-01T14:35:39.129Z,1.00
2022-10-01T14:38:13.866Z,1.00
2022-10-01T14:40:43.444Z,0.93
2022-10-01T14:43:25.403Z,1.20
2022-10-01T14:45:56.802Z,1.07
2022-10-01T14:48:25.643Z,1.07
2022-10-01T14:50:57.835Z,1.13
2022-10-01T14:53:27.921Z,1.43
2022-10-01T14:55:58.041Z,2.03
2022-10-01T14:58:31.879Z,1.30
2022-10-01T15:01:00.336Z,1.50
2022-10-01T15:03:35.445Z,1.30
2022-10-01T15:06:05.340Z,1.73
2022-10-01T15:08:47.728Z,2.40
2022-10-01T15:11:19.793Z,1.60
2022-10-01T15:13:49.457Z,1.63
2022-10-01T15:16:19.219Z,1.63
2022-10-01T15:18:50.172Z,1.20
2022-10-01T15:21:22.930Z,1.57
2022-10-01T15:23:50.385Z,1.27
2022-10-01T15:26:23.076Z,1.20
2022-10-01T15:28:49.901Z,1.70
2022-10-01T15:31:17.265Z,1.70
2022-10-01T15:33:44.526Z,1.50
2022-10-01T15:36:18.191Z,1.60
2022-10-01T15:38:48.958Z,1.40
2022-10-01T15:41:33.144Z,1.20
2022-10-01T15:44:05.355Z,1.20
2022-10-01T15:46:35.120Z,1.40
2022-10-01T15:49:20.735Z,1.30
2022-10-01T15:52:12.295Z,1.30
2022-10-01T15:54:42.329Z,1.37
2022-10-01T15:57:15.609Z,1.40
2022-10-01T15:59:42.385Z,1.30
2022-10-01T16:02:16.227Z,1.40
2022-10-01T16:04:42.985Z,1.70
2022-10-01T16:07:22.615Z,1.90
2022-10-01T16:09:56.058Z,1.40
2022-10-01T16:12:23.324Z,1.60
2022-10-01T16:15:01.878Z,1.60
2022-10-01T16:17:38.014Z,2.90
2022-10-01T16:20:45.588Z,1.60
2022-10-01T16:23:39.815Z,2.13
2022-10-01T16:26:28.429Z,1.90
2022-10-01T16:29:04.503Z,1.77
2022-10-01T16:31:31.948Z,2.30
2022-10-01T16:33:58.824Z,1.50
2022-10-01T16:36:26.372Z,2.17
2022-10-01T16:38:53.589Z,2.80
2022-10-01T16:41:23.112Z,1.80
2022-10-01T16:43:51.397Z,2.93
2022-10-01T16:46:18.173Z,3.20
2022-10-01T16:48:48.004Z,2.97
2022-10-01T16:51:14.807Z,1.83
2022-10-01T16:53:42.902Z,2.57
2022-10-01T16:56:10.838Z,4.73
2022-10-01T16:58:41.730Z,6.67
2022-10-01T17:01:10.095Z,3.80
2022-10-01T17:03:36.857Z,5.23
2022-10-01T17:06:03.718Z,1.30
2022-10-01T17:08:30.518Z,2.73
2022-10-01T17:11:00.240Z,2.50
2022-10-01T17:13:34.995Z,1.30
2022-10-01T17:16:02.273Z,2.07
2022-10-01T17:18:29.109Z,2.57
2022-10-01T17:20:56.269Z,1.20
2022-10-01T17:23:23.664Z,2.30
2022-10-01T17:25:50.847Z,1.40
2022-10-01T17:28:20.203Z,1.47
2022-10-01T17:30:48.465Z,1.20
2022-10-01T17:33:19.137Z,1.10
2022-10-01T17:35:51.653Z,1.50
2022-10-01T17:38:19.454Z,1.43
2022-10-01T17:40:46.658Z,2.83
2022-10-01T17:43:15.260Z,1.30
2022-10-01T17:45:43.013Z,1.70
2022-10-01T17:48:12.357Z,2.80
2022-10-01T17:50:43.540Z,1.50
2022-10-01T17:53:11.399Z,1.40
2022-10-01T17:55:42.500Z,2.10
2022-10-01T17:58:09.958Z,1.93
2022-10-01T18:00:37.238Z,1.67
2022-10-01T18:03:04.454Z,1.73
2022-10-01T18:05:31.433Z,2.07
2022-10-01T18:07:58.135Z,2.10
2022-10-01T18:10:24.988Z,1.50
2022-10-01T18:12:51.719Z,1.40
2022-10-01T18:15:20.730Z,1.47
2022-10-01T18:17:52.003Z,1.17
2022-10-01T18:20:20.628Z,0.90
2022-10-01T18:22:47.552Z,1.50
2022-10-01T18:25:16.052Z,1.27
2022-10-01T18:27:43.555Z,2.10
2022-10-01T18:30:10.833Z,1.40
2022-10-01T18:32:44.751Z,1.30
2022-10-01T18:35:26.976Z,1.63
2022-10-01T18:37:57.878Z,1.40
2022-10-01T18:40:34.633Z,1.60
2022-10-01T18:43:15.987Z,1.50
2022-10-01T18:45:45.594Z,1.20
2022-10-01T18:48:38.615Z,1.90
2022-10-01T18:51:17.405Z,1.00
2022-10-01T18:54:08.832Z,1.50
2022-10-01T18:56:37.421Z,1.57
2022-10-01T18:59:22.178Z,1.80
2022-10-01T19:02:20.979Z,1.83
2022-10-01T19:05:07.687Z,1.33
2022-10-01T19:07:46.546Z,1.30
2022-10-01T19:10:22.888Z,1.37
2022-10-01T19:13:03.152Z,1.80
2022-10-01T19:16:02.181Z,1.50
2022-10-01T19:18:37.884Z,2.07
2022-10-01T19:21:13.761Z,1.80
2022-10-01T19:24:01.742Z,1.37
2022-10-01T19:26:31.110Z,1.80
2022-10-01T19:29:19.655Z,1.93
2022-10-01T19:31:56.235Z,1.60
2022-10-01T19:34:48.295Z,1.43
2022-10-01T19:37:33.745Z,1.97
2022-10-01T19:40:14.639Z,1.73
2022-10-01T19:42:47.611Z,1.33
2022-10-01T19:45:25.666Z,1.47
2022-10-01T19:48:07.921Z,1.97
2022-10-01T19:50:39.618Z,1.47
2022-10-01T19:53:21.473Z,1.70
2022-10-01T19:55:51.517Z,1.60
2022-10-01T19:58:20.414Z,1.50
2022-10-01T20:00:52.571Z,1.47
2022-10-01T20:03:39.585Z,1.50
2022-10-01T20:06:37.682Z,1.60
2022-10-01T20:09:34.579Z,1.30
2022-10-01T20:12:16.232Z,1.23
2022-10-01T20:15:10.415Z,1.50
2022-10-01T20:17:47.790Z,1.87
2022-10-01T20:20:50.832Z,1.80
2022-10-01T20:23:45.263Z,1.80
2022-10-01T20:26:21.164Z,1.47
2022-10-01T20:29:18.402Z,1.80
2022-10-01T20:32:10.548Z,1.70
2022-10-01T20:34:42.036Z,1.27
2022-10-01T20:37:22.884Z,1.47
2022-10-01T20:39:59.883Z,1.50
2022-10-01T20:42:35.499Z,1.70
2022-10-01T20:45:04.444Z,1.40
2022-10-01T20:47:40.385Z,1.60
2022-10-01T20:50:19.298Z,1.47
2022-10-01T20:53:03.928Z,1.70
2022-10-01T20:55:45.319Z,2.00
2022-10-01T20:58:19.296Z,1.93
2022-10-01T21:00:47.771Z,1.70
2022-10-01T21:03:32.071Z,1.80
2022-10-01T21:06:04.782Z,1.50
2022-10-01T21:08:47.452Z,1.40
2022-10-01T21:11:19.736Z,2.10
2022-10-01T21:14:00.592Z,2.17
2022-10-01T21:16:56.760Z,1.50
2022-10-01T21:19:29.240Z,1.83
2022-10-01T21:22:33.279Z,1.37
2022-10-01T21:25:26.890Z,1.43
2022-10-01T21:28:31.427Z,1.57
2022-10-01T21:31:34.461Z,1.30
2022-10-01T21:34:26.284Z,1.63
2022-10-01T21:37:03.844Z,1.50
2022-10-01T21:39:38.155Z,1.67
2022-10-01T21:42:13.905Z,1.67
2022-10-01T21:45:07.680Z,2.07
2022-10-01T21:48:01.550Z,1.13
2022-10-01T21:50:44.465Z,1.80
2022-10-01T21:53:29.068Z,2.27
2022-10-01T21:56:26.485Z,1.70
2022-10-01T21:58:53.147Z,1.97
2022-10-01T22:01:41.188Z,1.73
2022-10-01T22:04:16.581Z,2.43
2022-10-01T22:06:53.176Z,1.53
2022-10-01T22:09:43.201Z,1.93
2022-10-01T22:12:11.738Z,1.70
2022-10-01T22:14:40.405Z,2.00
2022-10-01T22:17:17.605Z,1.70
2022-10-01T22:19:51.110Z,2.00
2022-10-01T22:22:25.718Z,1.80
2022-10-01T22:24:53.587Z,1.70
2022-10-01T22:27:44.190Z,1.50
2022-10-01T22:30:17.677Z,2.00
2022-10-01T22:32:51.470Z,1.80
2022-10-01T22:35:38.535Z,2.03
2022-10-01T22:38:26.363Z,2.13
2022-10-01T22:41:36.407Z,2.13
2022-10-01T22:44:15.372Z,2.00
2022-10-01T22:46:51.346Z,2.10
2022-10-01T22:49:33.958Z,1.90
2022-10-01T22:52:01.701Z,2.47
2022-10-01T22:54:59.365Z,2.00
2022-10-01T22:57:28.923Z,1.87
2022-10-01T23:00:10.921Z,2.83
2022-10-01T23:02:48.193Z,2.47
2022-10-01T23:05:33.689Z,2.10
2022-10-01T23:08:06.115Z,2.10
2022-10-01T23:10:41.780Z,1.90
2022-10-01T23:13:33.875Z,2.00
2022-10-01T23:16:00.719Z,1.70
2022-10-01T23:18:57.455Z,1.60
2022-10-01T23:21:45.292Z,2.03
2022-10-01T23:24:29.688Z,1.73
2022-10-01T23:27:23.302Z,2.37
2022-10-01T23:30:11.586Z,2.20
2022-10-01T23:33:16.463Z,2.00
2022-10-01T23:35:51.897Z,2.10
2022-10-01T23:38:39.748Z,2.03
2022-10-01T23:41:18.985Z,2.63
2022-10-01T23:43:48.438Z,2.20
2022-10-01T23:46:17.599Z,1.93
2022-10-01T23:48:53.109Z,2.30
2022-10-01T23:51:27.488Z,2.10
2022-10-01T23:53:57.000Z,2.50
2022-10-01T23:56:49.189Z,2.33
2022-10-01T23:59:19.241Z,2.10
